createdAt,value
2022-10-04T00:03:18.198Z,2.30
2022-10-04T00:08:31.263Z,2.40
2022-10-04T00:13:38.239Z,2.10
2022-10-04T00:18:47.757Z,2.10
2022-10-04T00:24:14.625Z,1.90
2022-10-04T00:29:30.788Z,1.90
2022-10-04T00:34:38.136Z,1.80
2022-10-04T00:39:44.223Z,2.30
2022-10-04T00:45:09.222Z,2.20
2022-10-04T00:50:24.537Z,2.30
2022-10-04T00:56:02.485Z,2.40
2022-10-04T01:01:05.691Z,2.20
2022-10-04T01:06:12.426Z,2.40
2022-10-04T01:11:19.700Z,2.70
2022-10-04T01:16:28.988Z,2.60
2022-10-04T01:21:32.303Z,2.90
2022-10-04T01:26:39.768Z,2.80
2022-10-04T01:31:49.077Z,3.00
2022-10-04T01:36:56.078Z,2.80
2022-10-04T01:42:11.173Z,2.40
2022-10-04T01:47:27.194Z,2.50
2022-10-04T01:52:37.887Z,2.40
2022-10-04T01:57:53.030Z,2.20
2022-10-04T02:03:08.787Z,2.20
2022-10-04T02:08:18.866Z,2.80
2022-10-04T02:13:24.646Z,2.70
2022-10-04T02:18:30.253Z,2.60
2022-10-04T02:23:36.411Z,3.00
2022-10-04T02:28:39.660Z,2.70
2022-10-04T02:33:45.775Z,2.50
2022-10-04T02:39:00.648Z,2.60
2022-10-04T02:44:09.462Z,3.10
2022-10-04T02:49:33.416Z,2.50
2022-10-04T02:54:52.996Z,3.20
2022-10-04T03:00:28.280Z,2.50
2022-10-04T03:05:31.812Z,2.40
2022-10-04T03:10:36.309Z,2.80
2022-10-04T03:15:40.195Z,3.00
2022-10-04T03:20:44.428Z,2.80
2022-10-04T03:25:53.931Z,3.10
2022-10-04T03:30:58.681Z,2.90
2022-10-04T03:36:02.613Z,3.70
2022-10-04T03:41:07.029Z,3.60
2022-10-04T03:46:11.008Z,2.50
2022-10-04T03:51:18.981Z,3.10
2022-10-04T03:56:37.373Z,2.70
2022-10-04T04:01:59.482Z,3.70
2022-10-04T04:07:10.750Z,3.30
2022-10-04T04:12:25.694Z,2.90
2022-10-04T04:17:44.465Z,3.20
2022-10-04T04:22:58.145Z,3.50
2022-10-04T04:28:33.337Z,2.60
2022-10-04T04:33:50.122Z,3.90
2022-10-04T04:39:12.051Z,3.20
2022-10-04T04:44:18.969Z,4.10
2022-10-04T04:49:23.982Z,3.40
2022-10-04T04:54:28.427Z,2.70
2022-10-04T04:59:31.987Z,3.50
2022-10-04T05:04:35.129Z,3.40
2022-10-04T05:09:39.144Z,3.30
2022-10-04T05:14:48.641Z,3.70
2022-10-04T05:19:56.334Z,3.40
2022-10-04T05:25:10.309Z,3.20
2022-10-04T05:30:31.879Z,3.40
2022-10-04T05:35:54.823Z,3.60
2022-10-04T05:41:22.105Z,3.70
2022-10-04T05:46:35.692Z,3.00
2022-10-04T05:51:53.522Z,3.10
2022-10-04T05:57:03.183Z,3.20
2022-10-04T06:02:37.308Z,3.20
2022-10-04T06:07:54.652Z,2.70
2022-10-04T06:13:16.666Z,2.70
2022-10-04T06:18:42.389Z,2.80
2022-10-04T06:24:00.947Z,2.60
2022-10-04T06:29:11.334Z,2.40
2022-10-04T06:34:41.956Z,3.00
2022-10-04T06:40:01.260Z,2.70
2022-10-04T06:45:36.950Z,3.00
2022-10-04T06:51:06.469Z,2.80
2022-10-04T06:56:34.545Z,2.70
2022-10-04T07:01:48.655Z,2.90
2022-10-04T07:07:27.456Z,3.10
2022-10-04T07:12:34.160Z,2.60
2022-10-04T07:17:42.989Z,2.70
2022-10-04T07:22:53.038Z,2.60
2022-10-04T07:28:37.123Z,2.70
2022-10-04T07:33:48.507Z,2.80
2022-10-04T07:38:59.449Z,2.30
2022-10-04T07:44:16.367Z,2.40
2022-10-04T07:49:23.606Z,2.40
2022-10-04T07:54:45.445Z,2.10
2022-10-04T08:00:04.024Z,2.10
2022-10-04T08:05:37.948Z,1.90
2022-10-04T08:11:10.246Z,1.80
2022-10-04T08:16:43.569Z,1.80
2022-10-04T08:22:24.318Z,1.90
2022-10-04T08:28:32.323Z,1.90
2022-10-04T08:33:41.361Z,1.80
2022-10-04T08:38:53.587Z,2.00
2022-10-04T08:44:37.442Z,1.80
2022-10-04T08:50:18.685Z,1.60
2022-10-04T08:55:40.355Z,1.70
2022-10-04T09:00:55.585Z,1.80
2022-10-04T09:06:12.153Z,1.60
2022-10-04T09:11:46.864Z,1.90
2022-10-04T09:17:06.465Z,1.50
2022-10-04T09:22:15.491Z,1.40
2022-10-04T09:27:56.542Z,1.30
2022-10-04T09:33:33.728Z,1.40
2022-10-04T09:39:18.003Z,1.40
2022-10-04T09:44:30.584Z,1.10
2022-10-04T09:49:53.300Z,1.30
2022-10-04T09:55:29.075Z,1.10
2022-10-04T10:00:39.792Z,1.40
2022-10-04T10:05:54.985Z,1.30
2022-10-04T10:11:50.819Z,1.40
2022-10-04T10:17:22.711Z,1.30
2022-10-04T10:22:40.776Z,1.40
2022-10-04T10:27:47.050Z,1.50
2022-10-04T10:33:07.193Z,1.30
2022-10-04T10:38:26.528Z,1.40
2022-10-04T10:43:56.015Z,1.30
2022-10-04T10:49:32.466Z,1.30
2022-10-04T10:54:58.210Z,1.10
2022-10-04T11:00:43.916Z,1.10
2022-10-04T11:05:52.965Z,1.40
2022-10-04T11:11:22.648Z,1.20
2022-10-04T11:16:48.013Z,1.20
2022-10-04T11:22:25.306Z,0.90
2022-10-04T11:27:31.323Z,0.90
2022-10-04T11:32:59.833Z,0.90
2022-10-04T11:38:15.014Z,0.80
2022-10-04T11:43:27.164Z,0.80
2022-10-04T11:49:05.395Z,0.80
2022-10-04T11:54:48.389Z,0.70
2022-10-04T12:00:11.712Z,0.70
2022-10-04T12:05:49.209Z,0.80
2022-10-04T12:11:16.218Z,0.80
2022-10-04T12:16:32.380Z,0.80
2022-10-04T12:21:46.749Z,0.70
2022-10-04T12:27:14.707Z,0.60
2022-10-04T12:32:40.876Z,0.50
2022-10-04T12:37:53.003Z,0.70
2022-10-04T12:43:05.131Z,0.70
2022-10-04T12:48:37.539Z,0.60
2022-10-04T12:54:01.764Z,0.90
2022-10-04T12:59:52.684Z,0.90
2022-10-04T13:05:02.267Z,0.70
2022-10-04T13:10:24.284Z,0.40
2022-10-04T13:21:12.328Z,0.70
2022-10-04T13:26:28.502Z,0.60
2022-10-04T13:31:46.061Z,0.70
2022-10-04T13:37:16.201Z,1.00
2022-10-04T13:42:38.062Z,0.40
2022-10-04T13:47:52.307Z,0.50
2022-10-04T13:53:42.676Z,0.50
2022-10-04T13:58:52.210Z,0.40
2022-10-04T14:04:16.830Z,0.50
2022-10-04T14:09:41.731Z,0.40
2022-10-04T14:15:04.676Z,1.40
2022-10-04T14:20:24.290Z,1.40
2022-10-04T14:25:45.680Z,0.90
2022-10-04T14:31:21.769Z,0.50
2022-10-04T14:37:01.892Z,0.70
2022-10-04T14:42:24.629Z,0.60
2022-10-04T14:47:58.634Z,0.60
2022-10-04T14:53:28.348Z,0.80
2022-10-04T14:58:41.286Z,0.50
2022-10-04T15:04:03.128Z,0.90
2022-10-04T15:09:50.165Z,0.50
2022-10-04T15:15:25.037Z,0.60
2022-10-04T15:20:54.618Z,0.70
2022-10-04T15:26:04.243Z,0.50
2022-10-04T15:31:27.482Z,0.60
2022-10-04T15:36:48.726Z,0.80
2022-10-04T15:42:13.388Z,1.00
2022-10-04T15:47:53.971Z,1.10
2022-10-04T15:53:23.907Z,1.10
2022-10-04T15:59:01.286Z,1.10
2022-10-04T16:04:33.653Z,3.60
2022-10-04T16:09:48.690Z,2.70
2022-10-04T16:15:19.715Z,4.50
2022-10-04T16:21:01.514Z,5.30
2022-10-04T16:26:11.805Z,10.60
2022-10-04T16:31:57.235Z,13.30
2022-10-04T16:37:25.170Z,12.40
2022-10-04T16:42:31.387Z,11.20
2022-10-04T16:47:50.891Z,12.90
2022-10-04T16:53:44.051Z,13.70
2022-10-04T16:59:11.454Z,12.60
2022-10-04T17:04:17.770Z,12.40
2022-10-04T17:09:48.510Z,12.80
2022-10-04T17:15:28.806Z,12.60
2022-10-04T17:20:41.252Z,10.30
2022-10-04T17:25:51.345Z,9.10
2022-10-04T17:31:23.347Z,9.80
2022-10-04T17:36:53.540Z,12.00
2022-10-04T17:42:16.329Z,11.30
2022-10-04T17:48:24.458Z,11.20
2022-10-04T17:53:51.680Z,11.20
2022-10-04T17:58:59.202Z,11.90
2022-10-04T18:04:24.731Z,14.10
2022-10-04T18:09:48.899Z,13.80
2022-10-04T18:15:07.748Z,12.40
2022-10-04T18:20:11.300Z,12.10
2022-10-04T18:25:27.017Z,10.90
2022-10-04T18:30:30.426Z,11.40
2022-10-04T18:35:35.315Z,11.80
2022-10-04T18:40:44.548Z,17.80
2022-10-04T18:46:02.906Z,20.00
2022-10-04T18:51:24.644Z,23.40
2022-10-04T18:56:34.227Z,17.50
2022-10-04T19:02:06.678Z,14.10
2022-10-04T19:07:16.394Z,12.70
2022-10-04T19:12:26.054Z,10.50
2022-10-04T19:17:55.657Z,9.30
2022-10-04T19:23:20.557Z,8.30
2022-10-04T19:28:31.548Z,9.60
2022-10-04T19:33:40.669Z,7.40
2022-10-04T19:38:59.011Z,7.20
2022-10-04T19:44:20.659Z,6.30
2022-10-04T19:49:45.818Z,5.40
2022-10-04T19:54:57.867Z,5.10
2022-10-04T20:00:01.384Z,5.60
2022-10-04T20:05:13.154Z,5.90
2022-10-04T20:10:36.404Z,5.40
2022-10-04T20:15:40.410Z,5.90
2022-10-04T20:20:57.312Z,5.90
2022-10-04T20:26:02.206Z,5.90
2022-10-04T20:31:08.464Z,7.60
2022-10-04T20:36:33.433Z,9.60
2022-10-04T20:41:55.059Z,9.80
2022-10-04T20:47:00.090Z,8.00
2022-10-04T20:52:14.753Z,7.50
2022-10-04T20:57:18.626Z,6.90
2022-10-04T21:02:24.310Z,8.70
2022-10-04T21:07:27.497Z,6.00
2022-10-04T21:12:31.147Z,6.10
2022-10-04T21:17:36.993Z,6.20
2022-10-04T21:22:40.471Z,6.60
2022-10-04T21:27:44.063Z,7.10
2022-10-04T21:32:47.386Z,6.10
2022-10-04T21:37:50.467Z,6.60
2022-10-04T21:42:54.234Z,6.10
2022-10-04T21:47:57.705Z,6.10
2022-10-04T21:53:00.887Z,5.80
2022-10-04T21:58:04.279Z,6.70
2022-10-04T22:03:07.487Z,6.00
2022-10-04T22:08:10.801Z,5.20
2022-10-04T22:13:13.972Z,5.00
2022-10-04T22:18:17.340Z,4.70
2022-10-04T22:23:23.511Z,5.20
2022-10-04T22:28:30.364Z,4.80
2022-10-04T22:33:36.391Z,4.70
2022-10-04T22:38:41.760Z,5.50
2022-10-04T22:43:50.124Z,5.00
2022-10-04T22:48:53.201Z,4.90
2022-10-04T22:53:56.549Z,5.20
2022-10-04T22:59:00.300Z,4.90
2022-10-04T23:04:12.347Z,4.80
2022-10-04T23:09:15.527Z,5.60
2022-10-04T23:14:18.923Z,4.90
2022-10-04T23:19:22.110Z,4.70
2022-10-04T23:24:25.217Z,5.30
2022-10-04T23:29:35.475Z,5.40
2022-10-04T23:34:40.817Z,5.20
2022-10-04T23:39:45.172Z,5.30
2022-10-04T23:44:50.157Z,5.20
2022-10-04T23:49:54.444Z,4.30
2022-10-04T23:54:57.509Z,6.10
